CheckWX is a tool to help pilots better visualize weather data.  It is not intended as a substitute for an official pre-flight weather briefing.

08:26:26 UTC

EHKV METAR
K14-fa-1c Sea
K14-fa-1c Sea, The Netherlands
Current

31 mins ago

EHKV 220755Z AUTO 10007KT 1500 BR FEW015 08/07 Q1035 W///H///
Observed
Feb-22 @ 07:55 UTC
Wind
  • 100° at 7 KTS
Visibility
1,497 meters
Flight Rules
LIFR
Conditions
Mist
Cloud Levels
  • Few at 1,500' AGL
Temperature
C / 46°F
Dewpoint
C / 45°F
Humidity
93%
Altimeter
30.56" Hg
Pressure
1034.91 hPa
Previous

1 hour ago

EHKV 220725Z AUTO 08005KT 4300 BR NSC 09/07 Q1035 W///H///
Observed
Feb-22 @ 07:25 UTC
Wind
  • 080° at 5 KTS
Visibility
4,297 meters
Flight Rules
IFR
Conditions
Mist
Cloud Levels
  • Clear skies
Temperature
C / 48°F
Dewpoint
C / 45°F
Humidity
87%
Altimeter
30.56" Hg
Pressure
1034.91 hPa
Previous

2 hours ago

EHKV 220655Z AUTO 08005KT 4700 BR NSC 08/07 Q1034 W///H///
Observed
Feb-22 @ 06:55 UTC
Wind
  • 080° at 5 KTS
Visibility
4,699 meters
Flight Rules
IFR
Conditions
Mist
Cloud Levels
  • Clear skies
Temperature
C / 46°F
Dewpoint
C / 45°F
Humidity
93%
Altimeter
30.53" Hg
Pressure
1033.91 hPa